sensor_id;sensor_type;location;lat;lon;timestamp;P1;durP1;ratioP1;P2;durP2;ratioP2
38463;SDS011;24243;51.956;5.902;2023-04-23T00:00:35;3.00;;;1.98;;
38463;SDS011;24243;51.956;5.902;2023-04-23T00:03:03;4.32;;;2.25;;
38463;SDS011;24243;51.956;5.902;2023-04-23T00:05:36;3.35;;;2.38;;
38463;SDS011;24243;51.956;5.902;2023-04-23T00:08:03;4.03;;;2.05;;
38463;SDS011;24243;51.956;5.902;2023-04-23T00:10:29;2.47;;;2.28;;
38463;SDS011;24243;51.956;5.902;2023-04-23T00:12:56;3.30;;;2.67;;
38463;SDS011;24243;51.956;5.902;2023-04-23T00:15:22;3.03;;;2.17;;
38463;SDS011;24243;51.956;5.902;2023-04-23T00:17:48;2.92;;;1.98;;
38463;SDS011;24243;51.956;5.902;2023-04-23T00:20:14;3.58;;;2.45;;
38463;SDS011;24243;51.956;5.902;2023-04-23T00:22:41;3.42;;;2.25;;
38463;SDS011;24243;51.956;5.902;2023-04-23T00:25:08;3.08;;;2.38;;
38463;SDS011;24243;51.956;5.902;2023-04-23T00:27:34;3.45;;;2.50;;
38463;SDS011;24243;51.956;5.902;2023-04-23T00:30:00;4.35;;;2.13;;
38463;SDS011;24243;51.956;5.902;2023-04-23T00:32:27;3.00;;;2.30;;
38463;SDS011;24243;51.956;5.902;2023-04-23T00:34:53;4.13;;;2.45;;
38463;SDS011;24243;51.956;5.902;2023-04-23T00:37:20;2.85;;;2.17;;
38463;SDS011;24243;51.956;5.902;2023-04-23T00:39:46;3.95;;;2.60;;
38463;SDS011;24243;51.956;5.902;2023-04-23T00:42:12;3.03;;;2.50;;
38463;SDS011;24243;51.956;5.902;2023-04-23T00:44:38;2.92;;;2.30;;
38463;SDS011;24243;51.956;5.902;2023-04-23T00:47:05;3.40;;;2.30;;
38463;SDS011;24243;51.956;5.902;2023-04-23T00:49:33;4.50;;;2.90;;
38463;SDS011;24243;51.956;5.902;2023-04-23T00:51:59;3.22;;;2.50;;
38463;SDS011;24243;51.956;5.902;2023-04-23T00:54:25;3.28;;;2.35;;
38463;SDS011;24243;51.956;5.902;2023-04-23T00:56:52;3.80;;;2.17;;
38463;SDS011;24243;51.956;5.902;2023-04-23T00:59:18;3.58;;;2.55;;
38463;SDS011;24243;51.956;5.902;2023-04-23T01:01:45;3.15;;;2.30;;
38463;SDS011;24243;51.956;5.902;2023-04-23T01:04:15;3.75;;;2.67;;
38463;SDS011;24243;51.956;5.902;2023-04-23T01:06:42;3.53;;;2.65;;
38463;SDS011;24243;51.956;5.902;2023-04-23T01:09:11;3.45;;;2.60;;
38463;SDS011;24243;51.956;5.902;2023-04-23T01:11:38;3.45;;;2.50;;
38463;SDS011;24243;51.956;5.902;2023-04-23T01:14:07;4.28;;;2.55;;
38463;SDS011;24243;51.956;5.902;2023-04-23T01:16:33;3.03;;;2.30;;
38463;SDS011;24243;51.956;5.902;2023-04-23T01:19:00;4.05;;;3.10;;
38463;SDS011;24243;51.956;5.902;2023-04-23T01:21:27;3.80;;;2.45;;
38463;SDS011;24243;51.956;5.902;2023-04-23T01:23:53;3.72;;;2.67;;
38463;SDS011;24243;51.956;5.902;2023-04-23T01:26:20;5.00;;;3.08;;
38463;SDS011;24243;51.956;5.902;2023-04-23T01:28:46;3.05;;;2.58;;
38463;SDS011;24243;51.956;5.902;2023-04-23T01:31:12;4.55;;;3.20;;
38463;SDS011;24243;51.956;5.902;2023-04-23T01:33:39;3.20;;;2.50;;
38463;SDS011;24243;51.956;5.902;2023-04-23T01:36:05;3.35;;;2.53;;
38463;SDS011;24243;51.956;5.902;2023-04-23T01:38:32;3.22;;;2.28;;
38463;SDS011;24243;51.956;5.902;2023-04-23T01:40:59;4.28;;;2.42;;
38463;SDS011;24243;51.956;5.902;2023-04-23T01:43:25;5.00;;;2.97;;
38463;SDS011;24243;51.956;5.902;2023-04-23T01:45:52;3.45;;;2.55;;
38463;SDS011;24243;51.956;5.902;2023-04-23T01:48:18;3.58;;;2.60;;
38463;SDS011;24243;51.956;5.902;2023-04-23T01:50:43;3.83;;;2.60;;
38463;SDS011;24243;51.956;5.902;2023-04-23T01:53:09;3.67;;;2.75;;
38463;SDS011;24243;51.956;5.902;2023-04-23T01:55:38;3.85;;;2.55;;
38463;SDS011;24243;51.956;5.902;2023-04-23T01:58:06;4.15;;;3.00;;
38463;SDS011;24243;51.956;5.902;2023-04-23T02:00:31;3.70;;;2.60;;
38463;SDS011;24243;51.956;5.902;2023-04-23T02:02:57;3.67;;;2.65;;
38463;SDS011;24243;51.956;5.902;2023-04-23T02:05:23;3.60;;;2.88;;
38463;SDS011;24243;51.956;5.902;2023-04-23T02:07:52;4.13;;;2.92;;
38463;SDS011;24243;51.956;5.902;2023-04-23T02:10:18;3.08;;;2.65;;
38463;SDS011;24243;51.956;5.902;2023-04-23T02:12:45;4.20;;;3.03;;
38463;SDS011;24243;51.956;5.902;2023-04-23T02:15:11;3.92;;;3.33;;
38463;SDS011;24243;51.956;5.902;2023-04-23T02:17:38;4.10;;;3.00;;
38463;SDS011;24243;51.956;5.902;2023-04-23T02:20:04;3.47;;;2.92;;
38463;SDS011;24243;51.956;5.902;2023-04-23T02:22:31;3.25;;;2.53;;
38463;SDS011;24243;51.956;5.902;2023-04-23T02:24:57;4.30;;;3.35;;
38463;SDS011;24243;51.956;5.902;2023-04-23T02:27:24;3.70;;;3.13;;
38463;SDS011;24243;51.956;5.902;2023-04-23T02:29:49;4.10;;;3.20;;
38463;SDS011;24243;51.956;5.902;2023-04-23T02:32:16;3.95;;;2.85;;
38463;SDS011;24243;51.956;5.902;2023-04-23T02:34:41;3.35;;;2.75;;
38463;SDS011;24243;51.956;5.902;2023-04-23T02:37:07;3.35;;;3.00;;
38463;SDS011;24243;51.956;5.902;2023-04-23T02:39:33;4.30;;;2.95;;
38463;SDS011;24243;51.956;5.902;2023-04-23T02:41:59;3.80;;;2.90;;
38463;SDS011;24243;51.956;5.902;2023-04-23T02:44:26;4.32;;;3.15;;
38463;SDS011;24243;51.956;5.902;2023-04-23T02:46:51;3.83;;;2.92;;
38463;SDS011;24243;51.956;5.902;2023-04-23T02:49:17;4.25;;;3.20;;
38463;SDS011;24243;51.956;5.902;2023-04-23T02:51:45;3.80;;;3.03;;
38463;SDS011;24243;51.956;5.902;2023-04-23T02:54:11;4.32;;;3.10;;
38463;SDS011;24243;51.956;5.902;2023-04-23T02:56:38;3.72;;;3.15;;
38463;SDS011;24243;51.956;5.902;2023-04-23T02:59:04;4.03;;;3.22;;
38463;SDS011;24243;51.956;5.902;2023-04-23T03:01:30;4.28;;;3.15;;
38463;SDS011;24243;51.956;5.902;2023-04-23T03:03:56;4.38;;;3.28;;
38463;SDS011;24243;51.956;5.902;2023-04-23T03:06:22;3.63;;;2.70;;
38463;SDS011;24243;51.956;5.902;2023-04-23T03:08:48;4.25;;;2.80;;
38463;SDS011;24243;51.956;5.902;2023-04-23T03:11:13;3.53;;;2.63;;
38463;SDS011;24243;51.956;5.902;2023-04-23T03:13:39;3.63;;;2.92;;
38463;SDS011;24243;51.956;5.902;2023-04-23T03:16:05;4.38;;;3.22;;
38463;SDS011;24243;51.956;5.902;2023-04-23T03:18:31;3.85;;;2.90;;
38463;SDS011;24243;51.956;5.902;2023-04-23T03:20:57;4.15;;;3.30;;
38463;SDS011;24243;51.956;5.902;2023-04-23T03:23:23;4.35;;;3.35;;
38463;SDS011;24243;51.956;5.902;2023-04-23T03:25:49;3.97;;;2.95;;
38463;SDS011;24243;51.956;5.902;2023-04-23T03:28:14;4.07;;;3.30;;
38463;SDS011;24243;51.956;5.902;2023-04-23T03:30:40;4.78;;;3.33;;
38463;SDS011;24243;51.956;5.902;2023-04-23T03:33:06;3.70;;;2.63;;
38463;SDS011;24243;51.956;5.902;2023-04-23T03:35:32;4.60;;;3.58;;
38463;SDS011;24243;51.956;5.902;2023-04-23T03:37:58;4.47;;;3.00;;
38463;SDS011;24243;51.956;5.902;2023-04-23T03:40:23;3.50;;;2.80;;
38463;SDS011;24243;51.956;5.902;2023-04-23T03:42:49;4.22;;;3.40;;
38463;SDS011;24243;51.956;5.902;2023-04-23T03:45:15;3.92;;;2.92;;
38463;SDS011;24243;51.956;5.902;2023-04-23T03:47:41;3.60;;;2.83;;
38463;SDS011;24243;51.956;5.902;2023-04-23T03:50:07;3.47;;;2.83;;
38463;SDS011;24243;51.956;5.902;2023-04-23T03:52:34;3.90;;;3.00;;
38463;SDS011;24243;51.956;5.902;2023-04-23T03:55:00;4.60;;;3.25;;
38463;SDS011;24243;51.956;5.902;2023-04-23T03:57:26;3.33;;;2.70;;
38463;SDS011;24243;51.956;5.902;2023-04-23T03:59:51;4.18;;;3.33;;
38463;SDS011;24243;51.956;5.902;2023-04-23T04:02:18;4.78;;;3.55;;
38463;SDS011;24243;51.956;5.902;2023-04-23T04:04:44;3.45;;;2.65;;
38463;SDS011;24243;51.956;5.902;2023-04-23T04:07:10;3.67;;;2.80;;
38463;SDS011;24243;51.956;5.902;2023-04-23T04:09:37;4.30;;;3.13;;
38463;SDS011;24243;51.956;5.902;2023-04-23T04:12:04;3.90;;;2.97;;
38463;SDS011;24243;51.956;5.902;2023-04-23T04:14:30;3.85;;;3.25;;
38463;SDS011;24243;51.956;5.902;2023-04-23T04:16:56;4.18;;;2.90;;
38463;SDS011;24243;51.956;5.902;2023-04-23T04:19:22;3.65;;;2.95;;
38463;SDS011;24243;51.956;5.902;2023-04-23T04:21:48;4.28;;;3.22;;
38463;SDS011;24243;51.956;5.902;2023-04-23T04:24:15;3.17;;;2.50;;
38463;SDS011;24243;51.956;5.902;2023-04-23T04:26:42;3.28;;;2.83;;
38463;SDS011;24243;51.956;5.902;2023-04-23T04:29:09;3.88;;;2.78;;
38463;SDS011;24243;51.956;5.902;2023-04-23T04:31:35;4.40;;;2.95;;
38463;SDS011;24243;51.956;5.902;2023-04-23T04:34:01;3.53;;;2.78;;
38463;SDS011;24243;51.956;5.902;2023-04-23T04:36:27;4.22;;;3.50;;
38463;SDS011;24243;51.956;5.902;2023-04-23T04:38:53;4.03;;;2.67;;
38463;SDS011;24243;51.956;5.902;2023-04-23T04:41:23;4.78;;;3.38;;
38463;SDS011;24243;51.956;5.902;2023-04-23T04:43:52;3.05;;;2.75;;
38463;SDS011;24243;51.956;5.902;2023-04-23T04:46:18;3.40;;;2.97;;
38463;SDS011;24243;51.956;5.902;2023-04-23T04:51:13;2.78;;;2.20;;
38463;SDS011;24243;51.956;5.902;2023-04-23T04:53:39;3.50;;;2.42;;
38463;SDS011;24243;51.956;5.902;2023-04-23T04:56:04;3.95;;;3.00;;
38463;SDS011;24243;51.956;5.902;2023-04-23T04:58:30;3.83;;;2.97;;
38463;SDS011;24243;51.956;5.902;2023-04-23T05:00:57;4.28;;;3.22;;
38463;SDS011;24243;51.956;5.902;2023-04-23T05:03:23;4.00;;;2.78;;
38463;SDS011;24243;51.956;5.902;2023-04-23T05:05:50;3.42;;;2.72;;
38463;SDS011;24243;51.956;5.902;2023-04-23T05:10:45;3.75;;;2.63;;
38463;SDS011;24243;51.956;5.902;2023-04-23T05:13:11;3.55;;;2.58;;
38463;SDS011;24243;51.956;5.902;2023-04-23T05:15:37;3.42;;;2.55;;
38463;SDS011;24243;51.956;5.902;2023-04-23T05:18:03;3.80;;;2.92;;
38463;SDS011;24243;51.956;5.902;2023-04-23T05:20:29;4.30;;;3.17;;
38463;SDS011;24243;51.956;5.902;2023-04-23T05:22:55;3.75;;;2.95;;
38463;SDS011;24243;51.956;5.902;2023-04-23T05:25:23;3.43;;;2.40;;
38463;SDS011;24243;51.956;5.902;2023-04-23T05:27:50;3.67;;;2.67;;
38463;SDS011;24243;51.956;5.902;2023-04-23T05:30:15;3.85;;;3.10;;
38463;SDS011;24243;51.956;5.902;2023-04-23T05:32:41;6.10;;;3.25;;
38463;SDS011;24243;51.956;5.902;2023-04-23T05:35:07;4.90;;;3.03;;
38463;SDS011;24243;51.956;5.902;2023-04-23T05:37:33;3.47;;;2.78;;
38463;SDS011;24243;51.956;5.902;2023-04-23T05:39:59;3.97;;;2.67;;
38463;SDS011;24243;51.956;5.902;2023-04-23T05:42:26;4.05;;;3.03;;
38463;SDS011;24243;51.956;5.902;2023-04-23T05:44:52;5.43;;;3.13;;
38463;SDS011;24243;51.956;5.902;2023-04-23T05:47:18;3.78;;;2.80;;
38463;SDS011;24243;51.956;5.902;2023-04-23T05:49:44;4.72;;;2.92;;
38463;SDS011;24243;51.956;5.902;2023-04-23T05:52:10;3.92;;;2.78;;
38463;SDS011;24243;51.956;5.902;2023-04-23T05:54:36;8.77;;;3.50;;
38463;SDS011;24243;51.956;5.902;2023-04-23T05:57:01;5.47;;;2.88;;
38463;SDS011;24243;51.956;5.902;2023-04-23T05:59:28;5.88;;;3.03;;
38463;SDS011;24243;51.956;5.902;2023-04-23T06:01:54;4.50;;;2.97;;
38463;SDS011;24243;51.956;5.902;2023-04-23T06:04:19;4.60;;;3.30;;
38463;SDS011;24243;51.956;5.902;2023-04-23T06:06:45;4.43;;;2.80;;
38463;SDS011;24243;51.956;5.902;2023-04-23T06:09:11;3.63;;;2.83;;
38463;SDS011;24243;51.956;5.902;2023-04-23T06:11:37;4.32;;;3.05;;
38463;SDS011;24243;51.956;5.902;2023-04-23T06:14:03;4.97;;;3.15;;
38463;SDS011;24243;51.956;5.902;2023-04-23T06:16:29;4.50;;;3.05;;
38463;SDS011;24243;51.956;5.902;2023-04-23T06:18:55;4.85;;;2.83;;
38463;SDS011;24243;51.956;5.902;2023-04-23T06:21:24;5.20;;;3.40;;
38463;SDS011;24243;51.956;5.902;2023-04-23T06:23:51;3.40;;;2.50;;
38463;SDS011;24243;51.956;5.902;2023-04-23T06:26:17;4.63;;;3.03;;
38463;SDS011;24243;51.956;5.902;2023-04-23T06:28:43;3.80;;;2.95;;
38463;SDS011;24243;51.956;5.902;2023-04-23T06:31:10;3.60;;;2.75;;
38463;SDS011;24243;51.956;5.902;2023-04-23T06:33:38;5.13;;;3.15;;
38463;SDS011;24243;51.956;5.902;2023-04-23T06:36:04;5.10;;;2.80;;
38463;SDS011;24243;51.956;5.902;2023-04-23T06:38:31;4.30;;;2.80;;
38463;SDS011;24243;51.956;5.902;2023-04-23T06:40:57;3.13;;;2.38;;
38463;SDS011;24243;51.956;5.902;2023-04-23T06:43:23;3.33;;;2.60;;
38463;SDS011;24243;51.956;5.902;2023-04-23T06:45:49;4.03;;;2.70;;
38463;SDS011;24243;51.956;5.902;2023-04-23T06:48:15;3.78;;;2.60;;
38463;SDS011;24243;51.956;5.902;2023-04-23T06:50:42;5.65;;;2.90;;
38463;SDS011;24243;51.956;5.902;2023-04-23T06:53:08;3.50;;;2.30;;
38463;SDS011;24243;51.956;5.902;2023-04-23T06:55:34;4.68;;;2.75;;
38463;SDS011;24243;51.956;5.902;2023-04-23T06:58:00;4.82;;;2.40;;
38463;SDS011;24243;51.956;5.902;2023-04-23T07:00:25;3.05;;;2.40;;
38463;SDS011;24243;51.956;5.902;2023-04-23T07:02:51;4.60;;;2.33;;
38463;SDS011;24243;51.956;5.902;2023-04-23T07:05:17;4.72;;;2.25;;
38463;SDS011;24243;51.956;5.902;2023-04-23T07:07:43;3.38;;;2.30;;
38463;SDS011;24243;51.956;5.902;2023-04-23T07:10:10;4.90;;;2.80;;
38463;SDS011;24243;51.956;5.902;2023-04-23T07:12:36;5.28;;;3.08;;
38463;SDS011;24243;51.956;5.902;2023-04-23T07:15:03;3.83;;;2.40;;
38463;SDS011;24243;51.956;5.902;2023-04-23T07:17:30;5.07;;;2.03;;
38463;SDS011;24243;51.956;5.902;2023-04-23T07:19:56;2.75;;;2.20;;
38463;SDS011;24243;51.956;5.902;2023-04-23T07:22:22;4.13;;;2.60;;
38463;SDS011;24243;51.956;5.902;2023-04-23T07:24:49;2.97;;;2.03;;
38463;SDS011;24243;51.956;5.902;2023-04-23T07:27:15;3.55;;;2.53;;
38463;SDS011;24243;51.956;5.902;2023-04-23T07:29:41;3.25;;;2.47;;
38463;SDS011;24243;51.956;5.902;2023-04-23T07:32:07;3.30;;;2.35;;
38463;SDS011;24243;51.956;5.902;2023-04-23T07:34:33;3.72;;;2.00;;
38463;SDS011;24243;51.956;5.902;2023-04-23T07:37:00;3.75;;;1.98;;
38463;SDS011;24243;51.956;5.902;2023-04-23T07:39:26;3.25;;;2.10;;
38463;SDS011;24243;51.956;5.902;2023-04-23T07:41:52;3.63;;;2.35;;
38463;SDS011;24243;51.956;5.902;2023-04-23T07:44:18;4.38;;;2.95;;
38463;SDS011;24243;51.956;5.902;2023-04-23T07:46:44;3.17;;;1.75;;
38463;SDS011;24243;51.956;5.902;2023-04-23T07:49:09;3.15;;;1.88;;
38463;SDS011;24243;51.956;5.902;2023-04-23T07:51:35;2.42;;;1.98;;
38463;SDS011;24243;51.956;5.902;2023-04-23T07:54:01;2.33;;;1.85;;
38463;SDS011;24243;51.956;5.902;2023-04-23T07:56:27;4.10;;;2.03;;
38463;SDS011;24243;51.956;5.902;2023-04-23T07:58:56;3.05;;;1.80;;
38463;SDS011;24243;51.956;5.902;2023-04-23T08:01:25;3.67;;;2.72;;
38463;SDS011;24243;51.956;5.902;2023-04-23T08:03:51;2.67;;;1.67;;
38463;SDS011;24243;51.956;5.902;2023-04-23T08:08:46;2.03;;;1.38;;
38463;SDS011;24243;51.956;5.902;2023-04-23T08:11:11;3.05;;;2.05;;
38463;SDS011;24243;51.956;5.902;2023-04-23T08:13:37;1.55;;;1.30;;
38463;SDS011;24243;51.956;5.902;2023-04-23T08:16:03;1.98;;;1.77;;
38463;SDS011;24243;51.956;5.902;2023-04-23T08:18:29;1.77;;;1.40;;
38463;SDS011;24243;51.956;5.902;2023-04-23T08:20:54;2.20;;;1.70;;
38463;SDS011;24243;51.956;5.902;2023-04-23T08:23:21;2.92;;;1.80;;
38463;SDS011;24243;51.956;5.902;2023-04-23T08:25:47;2.78;;;2.13;;
38463;SDS011;24243;51.956;5.902;2023-04-23T08:28:13;3.42;;;2.08;;
38463;SDS011;24243;51.956;5.902;2023-04-23T08:30:38;3.85;;;1.83;;
38463;SDS011;24243;51.956;5.902;2023-04-23T08:33:04;2.72;;;2.00;;
38463;SDS011;24243;51.956;5.902;2023-04-23T08:35:30;4.63;;;2.17;;
38463;SDS011;24243;51.956;5.902;2023-04-23T08:37:56;3.72;;;1.75;;
38463;SDS011;24243;51.956;5.902;2023-04-23T08:40:21;2.88;;;1.50;;
38463;SDS011;24243;51.956;5.902;2023-04-23T08:42:52;3.08;;;1.50;;
38463;SDS011;24243;51.956;5.902;2023-04-23T08:45:22;2.33;;;1.33;;
38463;SDS011;24243;51.956;5.902;2023-04-23T08:47:49;2.38;;;1.63;;
38463;SDS011;24243;51.956;5.902;2023-04-23T08:50:16;2.35;;;1.45;;
38463;SDS011;24243;51.956;5.902;2023-04-23T08:52:48;3.08;;;1.60;;
38463;SDS011;24243;51.956;5.902;2023-04-23T08:55:17;1.85;;;1.33;;
38463;SDS011;24243;51.956;5.902;2023-04-23T08:57:43;2.58;;;1.45;;
38463;SDS011;24243;51.956;5.902;2023-04-23T09:00:11;2.17;;;1.50;;
38463;SDS011;24243;51.956;5.902;2023-04-23T09:02:40;2.88;;;1.52;;
38463;SDS011;24243;51.956;5.902;2023-04-23T09:05:07;2.28;;;1.30;;
38463;SDS011;24243;51.956;5.902;2023-04-23T09:07:34;2.75;;;1.38;;
38463;SDS011;24243;51.956;5.902;2023-04-23T09:10:04;2.85;;;1.60;;
38463;SDS011;24243;51.956;5.902;2023-04-23T09:12:31;2.80;;;1.65;;
38463;SDS011;24243;51.956;5.902;2023-04-23T09:14:59;2.45;;;1.13;;
38463;SDS011;24243;51.956;5.902;2023-04-23T09:17:29;2.63;;;1.20;;
38463;SDS011;24243;51.956;5.902;2023-04-23T09:19:57;3.92;;;1.38;;
38463;SDS011;24243;51.956;5.902;2023-04-23T09:25:19;3.40;;;1.60;;
38463;SDS011;24243;51.956;5.902;2023-04-23T09:27:47;3.85;;;1.40;;
38463;SDS011;24243;51.956;5.902;2023-04-23T09:32:42;3.10;;;1.27;;
38463;SDS011;24243;51.956;5.902;2023-04-23T09:35:11;3.50;;;1.60;;
38463;SDS011;24243;51.956;5.902;2023-04-23T09:37:40;3.22;;;1.40;;
38463;SDS011;24243;51.956;5.902;2023-04-23T09:40:07;4.25;;;1.67;;
38463;SDS011;24243;51.956;5.902;2023-04-23T09:42:34;5.57;;;1.30;;
38463;SDS011;24243;51.956;5.902;2023-04-23T09:45:10;3.13;;;1.30;;
38463;SDS011;24243;51.956;5.902;2023-04-23T09:47:37;2.72;;;1.17;;
38463;SDS011;24243;51.956;5.902;2023-04-23T09:50:04;3.38;;;1.20;;
38463;SDS011;24243;51.956;5.902;2023-04-23T09:52:31;3.78;;;1.23;;
38463;SDS011;24243;51.956;5.902;2023-04-23T09:55:00;3.17;;;1.17;;
38463;SDS011;24243;51.956;5.902;2023-04-23T09:57:26;2.58;;;0.98;;
38463;SDS011;24243;51.956;5.902;2023-04-23T09:59:52;3.65;;;1.15;;
38463;SDS011;24243;51.956;5.902;2023-04-23T10:02:25;3.13;;;1.00;;
38463;SDS011;24243;51.956;5.902;2023-04-23T10:04:51;2.42;;;1.00;;
38463;SDS011;24243;51.956;5.902;2023-04-23T10:07:17;2.30;;;1.02;;
38463;SDS011;24243;51.956;5.902;2023-04-23T10:09:44;3.08;;;0.90;;
38463;SDS011;24243;51.956;5.902;2023-04-23T10:12:10;2.15;;;0.98;;
38463;SDS011;24243;51.956;5.902;2023-04-23T10:14:38;2.42;;;0.93;;
38463;SDS011;24243;51.956;5.902;2023-04-23T10:17:05;2.65;;;0.70;;
38463;SDS011;24243;51.956;5.902;2023-04-23T10:19:32;4.63;;;1.05;;
38463;SDS011;24243;51.956;5.902;2023-04-23T10:21:58;2.75;;;0.90;;
38463;SDS011;24243;51.956;5.902;2023-04-23T10:24:33;2.92;;;1.05;;
38463;SDS011;24243;51.956;5.902;2023-04-23T10:27:02;3.67;;;0.70;;
38463;SDS011;24243;51.956;5.902;2023-04-23T10:29:30;4.70;;;0.98;;
38463;SDS011;24243;51.956;5.902;2023-04-23T10:31:57;3.03;;;0.70;;
38463;SDS011;24243;51.956;5.902;2023-04-23T10:34:24;2.57;;;0.80;;
38463;SDS011;24243;51.956;5.902;2023-04-23T10:36:51;3.75;;;0.70;;
38463;SDS011;24243;51.956;5.902;2023-04-23T10:39:22;2.92;;;0.77;;
38463;SDS011;24243;51.956;5.902;2023-04-23T10:41:58;1.85;;;0.60;;
38463;SDS011;24243;51.956;5.902;2023-04-23T10:44:37;3.15;;;0.60;;
38463;SDS011;24243;51.956;5.902;2023-04-23T10:47:05;2.20;;;0.82;;
38463;SDS011;24243;51.956;5.902;2023-04-23T10:49:35;2.60;;;0.60;;
38463;SDS011;24243;51.956;5.902;2023-04-23T10:52:08;2.72;;;0.75;;
38463;SDS011;24243;51.956;5.902;2023-04-23T10:54:39;3.47;;;0.60;;
38463;SDS011;24243;51.956;5.902;2023-04-23T10:57:08;2.40;;;0.82;;
38463;SDS011;24243;51.956;5.902;2023-04-23T10:59:38;2.72;;;0.80;;
38463;SDS011;24243;51.956;5.902;2023-04-23T11:02:09;2.10;;;0.77;;
38463;SDS011;24243;51.956;5.902;2023-04-23T11:04:40;2.33;;;0.60;;
38463;SDS011;24243;51.956;5.902;2023-04-23T11:07:10;1.63;;;0.40;;
38463;SDS011;24243;51.956;5.902;2023-04-23T11:09:46;3.17;;;0.85;;
38463;SDS011;24243;51.956;5.902;2023-04-23T11:12:29;2.40;;;0.50;;
38463;SDS011;24243;51.956;5.902;2023-04-23T11:14:56;1.95;;;0.45;;
38463;SDS011;24243;51.956;5.902;2023-04-23T11:20:04;2.60;;;0.40;;
38463;SDS011;24243;51.956;5.902;2023-04-23T11:22:44;1.60;;;0.50;;
38463;SDS011;24243;51.956;5.902;2023-04-23T11:25:15;1.05;;;0.43;;
38463;SDS011;24243;51.956;5.902;2023-04-23T11:27:48;2.00;;;0.47;;
38463;SDS011;24243;51.956;5.902;2023-04-23T11:30:19;1.65;;;0.60;;
38463;SDS011;24243;51.956;5.902;2023-04-23T11:32:51;1.80;;;0.50;;
38463;SDS011;24243;51.956;5.902;2023-04-23T11:35:19;1.45;;;0.50;;
38463;SDS011;24243;51.956;5.902;2023-04-23T11:37:47;2.43;;;0.60;;
38463;SDS011;24243;51.956;5.902;2023-04-23T11:40:14;1.27;;;0.50;;
38463;SDS011;24243;51.956;5.902;2023-04-23T11:42:52;3.03;;;0.80;;
38463;SDS011;24243;51.956;5.902;2023-04-23T11:45:19;1.52;;;0.52;;
38463;SDS011;24243;51.956;5.902;2023-04-23T11:47:50;2.05;;;0.70;;
38463;SDS011;24243;51.956;5.902;2023-04-23T11:50:21;1.83;;;0.57;;
38463;SDS011;24243;51.956;5.902;2023-04-23T11:52:57;1.55;;;0.50;;
38463;SDS011;24243;51.956;5.902;2023-04-23T11:55:32;2.13;;;0.70;;
38463;SDS011;24243;51.956;5.902;2023-04-23T11:57:58;1.80;;;0.70;;
38463;SDS011;24243;51.956;5.902;2023-04-23T12:00:24;2.20;;;0.50;;
38463;SDS011;24243;51.956;5.902;2023-04-23T12:02:51;1.88;;;0.65;;
38463;SDS011;24243;51.956;5.902;2023-04-23T12:05:28;1.67;;;0.80;;
38463;SDS011;24243;51.956;5.902;2023-04-23T12:08:07;3.05;;;0.80;;
38463;SDS011;24243;51.956;5.902;2023-04-23T12:10:50;1.17;;;0.40;;
38463;SDS011;24243;51.956;5.902;2023-04-23T12:13:24;3.22;;;0.77;;
38463;SDS011;24243;51.956;5.902;2023-04-23T12:15:55;1.88;;;0.77;;
38463;SDS011;24243;51.956;5.902;2023-04-23T12:18:28;3.00;;;0.50;;
38463;SDS011;24243;51.956;5.902;2023-04-23T12:21:09;2.38;;;0.50;;
38463;SDS011;24243;51.956;5.902;2023-04-23T12:23:37;1.80;;;0.40;;
38463;SDS011;24243;51.956;5.902;2023-04-23T12:26:08;3.60;;;1.23;;
38463;SDS011;24243;51.956;5.902;2023-04-23T12:28:44;1.27;;;0.47;;
38463;SDS011;24243;51.956;5.902;2023-04-23T12:31:24;1.20;;;0.68;;
38463;SDS011;24243;51.956;5.902;2023-04-23T12:33:57;1.85;;;0.77;;
38463;SDS011;24243;51.956;5.902;2023-04-23T12:36:27;2.97;;;0.98;;
38463;SDS011;24243;51.956;5.902;2023-04-23T12:44:29;3.08;;;1.23;;
38463;SDS011;24243;51.956;5.902;2023-04-23T12:46:59;2.60;;;1.05;;
38463;SDS011;24243;51.956;5.902;2023-04-23T12:49:30;1.73;;;0.68;;
38463;SDS011;24243;51.956;5.902;2023-04-23T12:52:00;2.47;;;0.80;;
38463;SDS011;24243;51.956;5.902;2023-04-23T12:54:27;2.67;;;1.00;;
38463;SDS011;24243;51.956;5.902;2023-04-23T12:56:55;2.37;;;1.13;;
38463;SDS011;24243;51.956;5.902;2023-04-23T12:59:22;2.67;;;0.88;;
38463;SDS011;24243;51.956;5.902;2023-04-23T13:01:47;1.92;;;0.80;;
38463;SDS011;24243;51.956;5.902;2023-04-23T13:04:14;2.50;;;0.90;;
38463;SDS011;24243;51.956;5.902;2023-04-23T13:06:40;3.15;;;0.77;;
38463;SDS011;24243;51.956;5.902;2023-04-23T13:09:07;3.28;;;0.75;;
38463;SDS011;24243;51.956;5.902;2023-04-23T13:11:34;2.70;;;0.70;;
38463;SDS011;24243;51.956;5.902;2023-04-23T13:14:01;1.52;;;0.40;;
38463;SDS011;24243;51.956;5.902;2023-04-23T13:16:26;2.50;;;0.70;;
38463;SDS011;24243;51.956;5.902;2023-04-23T13:18:53;1.30;;;0.63;;
38463;SDS011;24243;51.956;5.902;2023-04-23T13:21:19;1.92;;;0.40;;
38463;SDS011;24243;51.956;5.902;2023-04-23T13:23:45;2.45;;;0.55;;
38463;SDS011;24243;51.956;5.902;2023-04-23T13:26:11;1.30;;;0.45;;
38463;SDS011;24243;51.956;5.902;2023-04-23T13:28:37;1.88;;;0.50;;
38463;SDS011;24243;51.956;5.902;2023-04-23T13:31:03;2.38;;;0.47;;
38463;SDS011;24243;51.956;5.902;2023-04-23T13:33:30;1.38;;;0.50;;
38463;SDS011;24243;51.956;5.902;2023-04-23T13:35:56;3.10;;;0.70;;
38463;SDS011;24243;51.956;5.902;2023-04-23T13:38:26;1.35;;;0.50;;
38463;SDS011;24243;51.956;5.902;2023-04-23T13:43:17;2.40;;;0.60;;
38463;SDS011;24243;51.956;5.902;2023-04-23T13:45:44;2.05;;;0.60;;
38463;SDS011;24243;51.956;5.902;2023-04-23T13:48:11;1.15;;;0.50;;
38463;SDS011;24243;51.956;5.902;2023-04-23T13:50:38;2.78;;;0.55;;
38463;SDS011;24243;51.956;5.902;2023-04-23T13:53:04;2.22;;;0.60;;
38463;SDS011;24243;51.956;5.902;2023-04-23T13:55:30;1.00;;;0.40;;
38463;SDS011;24243;51.956;5.902;2023-04-23T13:57:56;1.42;;;0.60;;
38463;SDS011;24243;51.956;5.902;2023-04-23T14:00:23;1.88;;;0.60;;
38463;SDS011;24243;51.956;5.902;2023-04-23T14:02:51;2.30;;;0.50;;
38463;SDS011;24243;51.956;5.902;2023-04-23T14:05:16;1.60;;;0.60;;
38463;SDS011;24243;51.956;5.902;2023-04-23T14:07:42;2.85;;;0.75;;
38463;SDS011;24243;51.956;5.902;2023-04-23T14:10:09;2.28;;;0.60;;
38463;SDS011;24243;51.956;5.902;2023-04-23T14:12:35;3.33;;;0.50;;
38463;SDS011;24243;51.956;5.902;2023-04-23T14:15:03;1.20;;;0.32;;
38463;SDS011;24243;51.956;5.902;2023-04-23T14:17:29;1.50;;;0.40;;
38463;SDS011;24243;51.956;5.902;2023-04-23T14:19:55;1.38;;;0.57;;
38463;SDS011;24243;51.956;5.902;2023-04-23T14:22:21;1.20;;;0.43;;
38463;SDS011;24243;51.956;5.902;2023-04-23T14:24:50;0.90;;;0.45;;
38463;SDS011;24243;51.956;5.902;2023-04-23T14:27:25;1.08;;;0.35;;
38463;SDS011;24243;51.956;5.902;2023-04-23T14:32:20;0.82;;;0.32;;
38463;SDS011;24243;51.956;5.902;2023-04-23T14:34:45;1.63;;;0.43;;
38463;SDS011;24243;51.956;5.902;2023-04-23T14:37:11;2.10;;;0.40;;
38463;SDS011;24243;51.956;5.902;2023-04-23T14:39:37;1.88;;;0.70;;
38463;SDS011;24243;51.956;5.902;2023-04-23T14:42:03;1.77;;;0.40;;
38463;SDS011;24243;51.956;5.902;2023-04-23T14:44:29;1.27;;;0.30;;
38463;SDS011;24243;51.956;5.902;2023-04-23T14:46:54;0.85;;;0.40;;
38463;SDS011;24243;51.956;5.902;2023-04-23T14:49:20;1.92;;;0.70;;
38463;SDS011;24243;51.956;5.902;2023-04-23T14:51:47;1.80;;;0.38;;
38463;SDS011;24243;51.956;5.902;2023-04-23T14:54:22;1.20;;;0.30;;
38463;SDS011;24243;51.956;5.902;2023-04-23T14:56:51;1.92;;;0.60;;
38463;SDS011;24243;51.956;5.902;2023-04-23T14:59:17;1.20;;;0.20;;
38463;SDS011;24243;51.956;5.902;2023-04-23T15:01:42;1.25;;;0.40;;
38463;SDS011;24243;51.956;5.902;2023-04-23T15:04:09;2.13;;;0.55;;
38463;SDS011;24243;51.956;5.902;2023-04-23T15:06:35;0.80;;;0.40;;
38463;SDS011;24243;51.956;5.902;2023-04-23T15:09:02;1.55;;;0.30;;
38463;SDS011;24243;51.956;5.902;2023-04-23T15:11:28;1.58;;;0.50;;
38463;SDS011;24243;51.956;5.902;2023-04-23T15:14:01;4.50;;;2.92;;